Time;durP1;ratioP1;P1;durP2;ratioP2;P2;SDS_P1;SDS_P2;PMS_P1;PMS_P2;Temp;Humidity;BMP_temperature;BMP_pressure;BME280_temperature;BME280_humidity;BME280_pressure;Samples;Min_cycle;Max_cycle;Signal;HPM_P1;HPM_P2
2022/06/04 00:01:31;;;;;;;13.40;6.85;;;20.70;1.00;;;;;;5071631;28;20202;-73
2022/06/04 00:03:58;;;;;;;16.95;8.00;;;20.80;1.00;;;;;;5071855;28;20229;-73
2022/06/04 00:06:25;;;;;;;12.95;5.63;;;20.70;1.00;;;;;;5071838;28;20214;-74
2022/06/04 00:08:51;;;;;;;9.48;3.45;;;20.70;1.00;;;;;;5071823;28;20273;-74
2022/06/04 00:16:49;;;;;;;5.47;2.97;;;20.80;99.90;;;;;;5071765;28;20252;-75
2022/06/04 00:19:15;;;;;;;8.80;2.78;;;20.70;99.90;;;;;;5072149;28;20202;-75
2022/06/04 00:21:43;;;;;;;13.55;3.75;;;20.70;1.00;;;;;;5072047;28;20673;-74
2022/06/04 00:24:10;;;;;;;6.85;2.78;;;20.60;1.00;;;;;;5071762;28;20202;-75
2022/06/04 00:26:37;;;;;;;5.57;2.58;;;20.60;1.00;;;;;;5071259;28;20210;-75
2022/06/04 00:29:07;;;;;;;8.77;3.33;;;20.60;1.00;;;;;;5071798;28;20242;-74
2022/06/04 00:31:36;;;;;;;5.70;3.40;;;20.60;1.00;;;;;;5071073;28;20213;-74
2022/06/04 00:34:03;;;;;;;5.32;3.25;;;20.70;99.90;;;;;;5071470;28;20233;-74
2022/06/04 00:36:32;;;;;;;11.93;3.72;;;20.70;99.90;;;;;;5071255;28;20202;-74
2022/06/04 00:38:59;;;;;;;6.15;3.97;;;20.70;99.90;;;;;;5071041;28;20283;-74
2022/06/04 00:41:34;;;;;;;7.93;4.70;;;20.70;1.00;;;;;;5070879;28;20214;-74
2022/06/04 00:44:21;;;;;;;9.85;4.80;;;20.60;1.00;;;;;;5071466;28;20271;-73
2022/06/04 00:47:09;;;;;;;12.95;6.15;;;20.60;1.00;;;;;;5070882;28;20739;-74
2022/06/04 00:49:36;;;;;;;7.72;5.25;;;20.40;1.00;;;;;;5070688;28;20225;-74
2022/06/04 00:52:06;;;;;;;9.88;5.00;;;20.40;1.00;;;;;;5071217;28;20264;-76
2022/06/04 00:54:33;;;;;;;13.30;5.75;;;20.50;1.00;;;;;;5071044;28;20210;-76
2022/06/04 00:57:16;;;;;;;11.35;6.60;;;20.60;1.00;;;;;;5071185;28;20206;-76
2022/06/04 00:59:53;;;;;;;12.85;5.85;;;20.60;1.00;;;;;;5070635;28;20206;-75
2022/06/04 01:02:28;;;;;;;13.57;7.18;;;20.60;99.90;;;;;;5069978;28;20206;-75
2022/06/04 01:05:04;;;;;;;11.82;5.28;;;20.60;99.90;;;;;;5070814;28;20740;-75
2022/06/04 01:07:47;;;;;;;14.80;6.28;;;20.50;1.00;;;;;;5070498;28;20210;-75
2022/06/04 01:10:43;;;;;;;11.48;5.82;;;20.40;1.00;;;;;;5070945;28;20725;-75
2022/06/04 01:13:25;;;;;;;14.05;7.40;;;20.30;1.00;;;;;;5069893;28;20295;-75
2022/06/04 01:15:58;;;;;;;16.73;5.78;;;20.30;1.00;;;;;;5070844;28;20263;-75
2022/06/04 01:18:41;;;;;;;12.43;6.38;;;20.20;1.00;;;;;;5070307;28;20205;-75
2022/06/04 01:21:20;;;;;;;14.50;7.20;;;20.20;1.00;;;;;;5060971;28;20263;-75
2022/06/04 01:24:23;;;;;;;11.07;6.72;;;20.10;1.00;;;;;;5071211;28;20206;-75
2022/06/04 01:27:13;;;;;;;10.07;5.93;;;20.10;1.00;;;;;;5070200;28;20613;-75
2022/06/04 01:29:49;;;;;;;14.05;6.78;;;20.10;1.00;;;;;;5069981;28;20238;-75
2022/06/04 01:32:22;;;;;;;11.85;7.97;;;20.10;1.00;;;;;;5070928;28;20201;-75
2022/06/04 01:35:07;;;;;;;9.65;5.75;;;20.00;1.00;;;;;;5070800;28;20210;-75
2022/06/04 01:37:39;;;;;;;14.60;7.20;;;20.00;1.00;;;;;;5069993;28;20206;-73
2022/06/04 01:43:00;;;;;;;16.30;7.15;;;20.00;1.00;;;;;;5070251;28;20217;-75
2022/06/04 01:45:30;;;;;;;14.60;6.80;;;20.00;1.00;;;;;;5070189;28;20719;-74
2022/06/04 01:47:59;;;;;;;24.70;6.80;;;20.10;1.00;;;;;;5070219;28;20206;-75
2022/06/04 01:50:31;;;;;;;11.02;6.22;;;20.00;1.00;;;;;;5070318;28;20260;-74
2022/06/04 01:53:01;;;;;;;11.85;6.72;;;20.00;1.00;;;;;;5070272;28;20738;-74
2022/06/04 01:55:31;;;;;;;10.07;6.38;;;20.00;1.00;;;;;;5070198;28;20263;-74
2022/06/04 01:58:02;;;;;;;12.63;6.70;;;20.10;1.00;;;;;;5070472;28;20202;-74
2022/06/04 02:00:33;;;;;;;14.50;7.65;;;20.10;1.00;;;;;;5070028;28;20214;-74
2022/06/04 02:03:05;;;;;;;13.70;8.05;;;20.10;1.00;;;;;;5070279;28;20210;-75
2022/06/04 02:05:38;;;;;;;17.50;7.30;;;20.10;1.00;;;;;;5070178;28;20206;-74
2022/06/04 02:08:08;;;;;;;16.17;7.30;;;20.00;1.00;;;;;;5070262;28;20210;-74
2022/06/04 02:10:40;;;;;;;10.07;6.13;;;19.80;1.00;;;;;;5069990;28;20269;-74
2022/06/04 02:13:11;;;;;;;14.85;6.93;;;19.90;1.00;;;;;;5069957;28;20704;-76
2022/06/04 02:15:43;;;;;;;11.82;8.10;;;19.80;1.00;;;;;;5056023;28;20323;-74
2022/06/04 02:18:11;;;;;;;18.05;7.25;;;19.90;1.00;;;;;;5070288;28;20202;-76
2022/06/04 02:20:38;;;;;;;12.77;7.82;;;19.90;1.00;;;;;;5069694;28;20206;-76
2022/06/04 02:23:06;;;;;;;15.75;8.48;;;19.90;1.00;;;;;;5070313;28;20206;-75
2022/06/04 02:25:33;;;;;;;14.98;6.68;;;20.00;1.00;;;;;;5069753;28;20559;-75
2022/06/04 02:28:01;;;;;;;12.57;7.97;;;19.90;1.00;;;;;;5070060;28;20260;-77
2022/06/04 02:30:48;;;;;;;15.13;8.02;;;19.80;1.00;;;;;;5069651;28;20269;-76
2022/06/04 02:33:26;;;;;;;12.48;6.22;;;19.80;1.00;;;;;;5070319;28;20260;-76
2022/06/04 02:35:59;;;;;;;13.60;7.15;;;19.70;1.00;;;;;;5069937;28;20206;-77
2022/06/04 02:38:31;;;;;;;16.80;7.68;;;19.90;1.00;;;;;;5071238;28;20747;-77
2022/06/04 02:41:04;;;;;;;13.32;8.02;;;19.90;1.00;;;;;;5073797;28;20210;-77
2022/06/04 02:43:39;;;;;;;13.70;7.68;;;19.80;1.00;;;;;;5073562;28;20210;-77
2022/06/04 02:46:16;;;;;;;14.20;6.72;;;19.80;1.00;;;;;;5073778;28;20206;-77
2022/06/04 02:48:48;;;;;;;13.50;7.93;;;19.80;1.00;;;;;;5073610;28;20221;-77
2022/06/04 02:51:20;;;;;;;21.48;7.85;;;19.70;1.00;;;;;;5073944;28;20206;-74
2022/06/04 02:53:49;;;;;;;12.13;7.10;;;19.70;1.00;;;;;;5073778;28;20264;-74
2022/06/04 02:56:21;;;;;;;16.27;7.07;;;19.70;1.00;;;;;;5073604;28;20206;-73
2022/06/04 02:58:52;;;;;;;9.90;6.88;;;19.70;1.00;;;;;;5073405;28;20260;-74
2022/06/04 03:01:22;;;;;;;14.13;6.88;;;19.70;1.00;;;;;;5072930;28;20259;-74
2022/06/04 03:03:49;;;;;;;13.65;7.38;;;19.60;1.00;;;;;;5073556;28;20675;-75
2022/06/04 03:06:25;;;;;;;11.20;7.93;;;19.70;1.00;;;;;;5073707;28;20248;-74
2022/06/04 03:08:53;;;;;;;18.65;7.72;;;19.70;1.00;;;;;;5072978;28;20208;-74
2022/06/04 03:11:20;;;;;;;11.57;7.03;;;19.80;1.00;;;;;;5072506;28;20563;-74
2022/06/04 03:13:47;;;;;;;14.95;7.15;;;19.70;1.00;;;;;;5073039;28;20240;-75
2022/06/04 03:16:14;;;;;;;9.15;7.63;;;19.40;1.00;;;;;;5073661;28;20236;-74
2022/06/04 03:18:43;;;;;;;15.93;7.47;;;19.40;1.00;;;;;;5072652;28;20198;-74
2022/06/04 03:21:11;;;;;;;16.05;8.25;;;19.50;1.00;;;;;;5073116;28;20202;-74
2022/06/04 03:23:38;;;;;;;13.93;7.28;;;19.60;1.00;;;;;;5072291;28;20297;-73
2022/06/04 03:26:04;;;;;;;10.32;7.70;;;19.80;1.00;;;;;;5072862;28;20206;-74
2022/06/04 03:28:32;;;;;;;15.07;8.27;;;19.80;1.00;;;;;;5072381;28;20210;-74
2022/06/04 03:30:59;;;;;;;18.45;6.95;;;19.90;1.00;;;;;;5073069;28;20273;-74
2022/06/04 03:33:26;;;;;;;10.70;7.38;;;19.90;1.00;;;;;;5072778;28;20210;-77
2022/06/04 03:35:54;;;;;;;25.75;9.40;;;19.80;1.00;;;;;;5072879;28;20198;-77
2022/06/04 03:38:21;;;;;;;19.33;8.75;;;19.90;1.00;;;;;;5072092;28;20249;-75
2022/06/04 03:40:48;;;;;;;17.13;8.52;;;20.00;1.00;;;;;;5072507;28;20638;-76
2022/06/04 03:43:15;;;;;;;28.02;11.02;;;20.00;1.00;;;;;;5073224;28;20206;-76
2022/06/04 03:45:42;;;;;;;17.02;9.65;;;20.10;1.00;;;;;;5072655;28;20214;-76
2022/06/04 03:48:09;;;;;;;21.63;7.88;;;20.20;1.00;;;;;;5072580;28;20735;-76
2022/06/04 03:50:36;;;;;;;14.45;8.68;;;20.20;1.00;;;;;;5071766;28;20234;-76
2022/06/04 03:53:05;;;;;;;18.55;9.13;;;20.30;1.00;;;;;;5058200;28;20202;-76
2022/06/04 03:55:32;;;;;;;20.10;9.38;;;20.30;1.00;;;;;;5072371;28;20289;-76
2022/06/04 03:57:59;;;;;;;18.55;8.23;;;20.30;1.00;;;;;;5072445;28;20206;-76
2022/06/04 04:00:29;;;;;;;23.20;8.68;;;20.30;1.00;;;;;;5072086;28;20638;-77
2022/06/04 04:02:58;;;;;;;17.63;9.18;;;20.30;1.00;;;;;;5072318;28;20697;-76
2022/06/04 04:05:26;;;;;;;23.85;10.48;;;20.30;1.00;;;;;;5072168;28;20250;-76
2022/06/04 04:07:55;;;;;;;14.40;7.82;;;20.20;1.00;;;;;;5071992;28;20210;-75
2022/06/04 04:10:24;;;;;;;13.95;8.75;;;20.30;1.00;;;;;;5071416;28;20225;-76
2022/06/04 04:12:51;;;;;;;15.82;9.00;;;20.40;1.00;;;;;;5072335;28;20592;-76
2022/06/04 04:15:19;;;;;;;11.90;8.20;;;20.30;1.00;;;;;;5071891;28;20202;-76
2022/06/04 04:17:47;;;;;;;14.57;7.93;;;20.40;1.00;;;;;;5072464;28;20198;-75
2022/06/04 04:20:17;;;;;;;19.98;8.55;;;20.40;1.00;;;;;;5072048;28;20263;-76
2022/06/04 04:22:45;;;;;;;14.65;9.20;;;20.30;1.00;;;;;;5072247;28;20216;-76
2022/06/04 04:25:13;;;;;;;23.40;10.77;;;20.30;1.00;;;;;;5071772;28;20205;-76
2022/06/04 04:27:42;;;;;;;14.60;9.13;;;20.20;1.00;;;;;;5071388;28;20246;-76
2022/06/04 04:30:12;;;;;;;20.13;9.38;;;20.30;1.00;;;;;;5071554;28;20712;-76
2022/06/04 04:32:39;;;;;;;24.13;9.50;;;20.40;1.00;;;;;;5071380;28;20252;-76
2022/06/04 04:35:09;;;;;;;17.83;8.20;;;20.50;1.00;;;;;;5071886;28;20206;-76
2022/06/04 04:37:36;;;;;;;16.73;9.98;;;20.50;1.00;;;;;;5070830;28;21076;-77
2022/06/04 04:40:05;;;;;;;18.90;10.05;;;20.40;1.00;;;;;;5071401;28;20218;-75
2022/06/04 04:42:31;;;;;;;13.30;10.27;;;20.40;1.00;;;;;;5071135;28;20202;-76
2022/06/04 04:45:00;;;;;;;15.27;9.70;;;20.50;1.00;;;;;;5071469;28;20202;-76
2022/06/04 04:47:27;;;;;;;17.88;10.10;;;20.60;1.00;;;;;;5070990;28;20210;-75
2022/06/04 04:49:54;;;;;;;16.85;8.70;;;20.40;1.00;;;;;;5071479;28;20234;-74
2022/06/04 04:52:21;;;;;;;17.42;8.45;;;20.50;1.00;;;;;;5070491;28;20251;-75
2022/06/04 04:54:48;;;;;;;21.42;9.30;;;20.50;1.00;;;;;;5071252;28;20666;-75
2022/06/04 04:57:14;;;;;;;23.48;9.95;;;20.60;1.00;;;;;;5071527;28;20210;-74
2022/06/04 04:59:42;;;;;;;17.23;9.80;;;20.60;1.00;;;;;;5070213;28;20209;-75
2022/06/04 05:02:11;;;;;;;15.13;9.32;;;20.60;1.00;;;;;;5070693;28;20217;-75
2022/06/04 05:04:38;;;;;;;20.10;11.40;;;20.60;1.00;;;;;;5070191;28;20207;-76
2022/06/04 05:07:05;;;;;;;15.82;9.30;;;20.60;1.00;;;;;;5070887;28;20251;-77
2022/06/04 05:09:32;;;;;;;24.00;10.32;;;20.70;1.00;;;;;;5070392;28;20216;-77
2022/06/04 05:11:59;;;;;;;19.40;9.20;;;20.50;1.00;;;;;;5070944;28;20206;-76
2022/06/04 05:14:26;;;;;;;23.92;11.02;;;20.30;1.00;;;;;;5066727;28;20236;-74
2022/06/04 05:16:53;;;;;;;27.45;10.77;;;20.10;1.00;;;;;;5070388;28;20670;-74
2022/06/04 05:19:21;;;;;;;21.90;10.43;;;20.10;1.00;;;;;;5070228;28;20642;-74
2022/06/04 05:21:50;;;;;;;25.02;11.02;;;20.20;1.00;;;;;;5070630;28;20225;-74
2022/06/04 05:24:19;;;;;;;18.52;10.52;;;20.30;1.00;;;;;;5070740;28;20202;-73
2022/06/04 05:26:47;;;;;;;16.45;10.45;;;20.30;1.00;;;;;;5070763;28;20684;-74
2022/06/04 05:29:14;;;;;;;29.98;10.55;;;20.20;1.00;;;;;;5071298;28;20214;-74
2022/06/04 05:31:41;;;;;;;22.58;10.18;;;20.10;1.00;;;;;;5070344;28;20237;-74
2022/06/04 05:34:08;;;;;;;21.25;11.32;;;20.20;1.00;;;;;;5070692;28;20210;-73
2022/06/04 05:36:37;;;;;;;17.73;9.77;;;20.40;1.00;;;;;;5070230;28;20212;-74
2022/06/04 05:39:05;;;;;;;23.73;10.43;;;20.30;1.00;;;;;;5070722;28;20673;-73
2022/06/04 05:41:33;;;;;;;29.90;11.95;;;20.30;1.00;;;;;;5070381;28;20228;-73
2022/06/04 05:44:00;;;;;;;21.45;11.05;;;20.40;1.00;;;;;;5070567;28;20303;-73
2022/06/04 05:46:27;;;;;;;19.05;11.85;;;20.30;1.00;;;;;;5070445;28;20240;-77
2022/06/04 05:48:54;;;;;;;21.98;10.95;;;20.50;1.00;;;;;;5070495;28;20213;-75
2022/06/04 05:51:24;;;;;;;22.63;11.63;;;20.60;1.00;;;;;;5060812;28;20230;-75
2022/06/04 05:53:53;;;;;;;19.52;10.98;;;20.70;1.00;;;;;;5070226;28;20214;-76
2022/06/04 05:56:22;;;;;;;13.27;10.00;;;20.80;1.00;;;;;;5070112;28;20202;-74
2022/06/04 05:58:52;;;;;;;18.77;9.90;;;20.70;1.00;;;;;;5070715;28;20202;-76
2022/06/04 06:01:21;;;;;;;31.63;11.45;;;20.70;1.00;;;;;;5070111;28;20202;-74
2022/06/04 06:03:48;;;;;;;22.00;10.27;;;20.60;1.00;;;;;;5070145;28;20206;-73
2022/06/04 06:06:17;;;;;;;25.23;10.75;;;20.60;1.00;;;;;;5070337;28;20287;-75
2022/06/04 06:08:44;;;;;;;18.52;9.85;;;20.40;1.00;;;;;;5070870;28;20213;-75
2022/06/04 06:11:15;;;;;;;19.70;11.25;;;20.50;1.00;;;;;;5070607;28;20230;-75
2022/06/04 06:13:43;;;;;;;16.95;10.15;;;20.40;1.00;;;;;;5070336;28;20202;-74
2022/06/04 06:16:13;;;;;;;15.93;10.05;;;20.30;1.00;;;;;;5073872;28;20210;-73
2022/06/04 06:18:40;;;;;;;18.58;11.02;;;20.10;1.00;;;;;;5073371;28;20213;-74
2022/06/04 06:21:08;;;;;;;19.15;11.60;;;20.30;1.00;;;;;;5074309;28;20213;-75
2022/06/04 06:23:36;;;;;;;17.23;10.00;;;20.60;1.00;;;;;;5073161;28;20554;-74
2022/06/04 06:26:06;;;;;;;21.38;10.50;;;20.80;1.00;;;;;;5073776;28;20210;-75
2022/06/04 06:28:37;;;;;;;17.70;10.00;;;20.80;1.00;;;;;;5073454;28;20736;-74
2022/06/04 06:31:05;;;;;;;21.77;10.85;;;20.90;1.00;;;;;;5073888;28;20265;-74
2022/06/04 06:33:32;;;;;;;17.77;10.60;;;20.90;1.00;;;;;;5073175;28;20210;-75
2022/06/04 06:36:00;;;;;;;16.30;9.63;;;20.90;1.00;;;;;;5074068;28;20202;-74
2022/06/04 06:38:28;;;;;;;19.73;9.55;;;20.90;1.00;;;;;;5073324;28;20260;-74
2022/06/04 06:40:57;;;;;;;13.38;8.23;;;20.90;1.00;;;;;;5073645;28;20283;-73
2022/06/04 06:43:32;;;;;;;17.23;9.13;;;20.90;1.00;;;;;;5073165;28;20673;-73
2022/06/04 06:46:03;;;;;;;16.38;11.05;;;20.80;1.00;;;;;;5073282;28;20205;-75
2022/06/04 06:48:30;;;;;;;11.40;9.23;;;20.80;1.00;;;;;;5073325;28;20206;-74
2022/06/04 06:50:57;;;;;;;16.27;10.00;;;20.90;1.00;;;;;;5072957;28;20664;-75
2022/06/04 06:53:24;;;;;;;13.10;8.63;;;20.90;1.00;;;;;;5072445;28;20210;-75
2022/06/04 06:55:51;;;;;;;25.13;10.48;;;21.00;1.00;;;;;;5072818;28;20206;-74
2022/06/04 06:58:18;;;;;;;20.67;9.52;;;21.00;1.00;;;;;;5073468;28;20210;-73
2022/06/04 07:00:45;;;;;;;11.73;7.70;;;20.90;1.00;;;;;;5073659;28;20205;-74
2022/06/04 07:03:13;;;;;;;13.63;8.02;;;21.00;1.00;;;;;;5073028;28;20586;-73
2022/06/04 07:05:40;;;;;;;10.27;8.02;;;20.90;1.00;;;;;;5072967;28;20214;-73
2022/06/04 07:08:08;;;;;;;19.60;8.13;;;20.90;1.00;;;;;;5070199;28;20202;-74
2022/06/04 07:10:35;;;;;;;13.88;9.52;;;20.80;1.00;;;;;;5072528;28;20233;-75
2022/06/04 07:13:03;;;;;;;15.73;7.97;;;20.80;1.00;;;;;;5073124;28;20738;-75
2022/06/04 07:15:32;;;;;;;9.82;7.57;;;20.80;1.00;;;;;;5072688;28;20213;-75
2022/06/04 07:17:59;;;;;;;13.27;7.53;;;20.90;1.00;;;;;;5072706;28;20293;-74
2022/06/04 07:20:28;;;;;;;15.00;7.72;;;21.00;1.00;;;;;;5072597;28;20259;-73
2022/06/04 07:22:55;;;;;;;11.02;8.20;;;21.00;1.00;;;;;;5069637;28;20202;-71
2022/06/04 07:25:22;;;;;;;11.07;8.23;;;21.00;1.00;;;;;;5071542;28;20263;-74
2022/06/04 07:27:49;;;;;;;15.63;8.18;;;20.90;1.00;;;;;;5072852;28;20289;-73
2022/06/04 07:30:16;;;;;;;11.95;8.32;;;21.00;1.00;;;;;;5072905;28;20206;-77
2022/06/04 07:32:42;;;;;;;9.40;7.53;;;21.10;1.00;;;;;;5072742;28;20225;-73
2022/06/04 07:35:10;;;;;;;11.70;7.82;;;21.20;1.00;;;;;;5072906;28;20210;-71
2022/06/04 07:37:38;;;;;;;12.25;7.85;;;21.20;1.00;;;;;;5072341;28;20299;-73
2022/06/04 07:40:06;;;;;;;12.63;7.68;;;21.20;1.00;;;;;;5072351;28;20214;-74
2022/06/04 07:42:33;;;;;;;8.63;7.32;;;21.30;1.00;;;;;;5071999;28;20722;-74
2022/06/04 07:45:00;;;;;;;13.43;7.72;;;21.30;1.00;;;;;;5072422;28;20214;-74
2022/06/04 07:47:27;;;;;;;9.35;6.78;;;21.40;1.00;;;;;;5072113;28;20279;-74
2022/06/04 07:49:56;;;;;;;10.55;6.97;;;21.50;1.00;;;;;;5072602;28;20624;-73
2022/06/04 07:52:23;;;;;;;13.45;7.53;;;21.40;99.90;;;;;;5071807;28;20720;-73
2022/06/04 07:54:51;;;;;;;9.55;8.27;;;21.40;99.90;;;;;;5072445;28;20256;-74
2022/06/04 07:57:19;;;;;;;13.25;7.18;;;21.60;99.90;;;;;;5072396;28;20624;-74
2022/06/04 07:59:46;;;;;;;10.80;7.45;;;21.80;99.90;;;;;;5072663;28;20614;-74
2022/06/04 08:02:14;;;;;;;11.73;6.72;;;21.90;99.90;;;;;;5072732;28;20267;-73
2022/06/04 08:04:41;;;;;;;10.73;7.60;;;22.10;99.90;;;;;;5071657;28;20264;-73
2022/06/04 08:07:07;;;;;;;11.55;7.05;;;22.40;99.90;;;;;;5072135;28;20646;-74
2022/06/04 08:09:35;;;;;;;12.88;6.47;;;22.20;99.90;;;;;;5071589;28;20615;-73
2022/06/04 08:12:03;;;;;;;13.90;7.35;;;22.40;99.90;;;;;;5071683;28;20657;-73
2022/06/04 08:14:30;;;;;;;11.20;6.70;;;22.20;99.90;;;;;;5071595;28;20210;-73
2022/06/04 08:16:59;;;;;;;11.20;7.45;;;22.30;99.90;;;;;;5071854;28;20202;-74
2022/06/04 08:19:32;;;;;;;10.63;7.05;;;22.40;99.90;;;;;;5068687;28;20207;-73
2022/06/04 08:22:00;;;;;;;14.63;6.88;;;22.60;99.90;;;;;;5071735;28;20212;-74
2022/06/04 08:24:27;;;;;;;11.05;6.50;;;22.70;99.90;;;;;;5071814;28;20234;-72
2022/06/04 08:26:58;;;;;;;12.45;8.77;;;22.40;99.90;;;;;;5071841;28;20210;-73
2022/06/04 08:29:28;;;;;;;16.13;8.20;;;22.30;99.90;;;;;;5071195;28;20641;-73
2022/06/04 08:31:55;;;;;;;12.32;7.53;;;22.80;99.90;;;;;;5071623;28;20279;-74
2022/06/04 08:34:22;;;;;;;18.45;6.50;;;22.80;99.90;;;;;;5057498;28;20206;-74
2022/06/04 08:36:49;;;;;;;15.80;7.35;;;22.80;99.90;;;;;;5071612;28;20669;-74
2022/06/04 08:39:16;;;;;;;13.60;8.13;;;23.10;99.90;;;;;;5071499;28;20206;-74
2022/06/04 08:41:54;;;;;;;13.18;8.25;;;23.10;99.90;;;;;;5071493;28;20233;-74
2022/06/04 08:44:25;;;;;;;14.55;7.22;;;22.70;99.90;;;;;;5070815;28;20210;-73
2022/06/04 08:47:00;;;;;;;10.95;7.95;;;22.90;99.90;;;;;;5071316;28;20642;-74
2022/06/04 08:49:32;;;;;;;13.10;7.35;;;22.70;99.90;;;;;;5070697;28;20202;-74
2022/06/04 08:52:02;;;;;;;15.40;8.27;;;22.80;99.90;;;;;;5071454;28;20233;-74
2022/06/04 08:57:33;;;;;;;11.13;7.35;;;23.00;99.90;;;;;;5071505;28;20296;-74
2022/06/04 09:00:09;;;;;;;11.63;8.23;;;23.10;99.90;;;;;;5058527;28;20301;-74
2022/06/04 09:02:58;;;;;;;10.70;7.57;;;23.20;99.90;;;;;;5070797;28;20209;-74
2022/06/04 09:05:32;;;;;;;13.48;6.97;;;23.40;99.90;;;;;;5070894;28;20213;-74
2022/06/04 09:08:04;;;;;;;10.13;7.15;;;23.40;99.90;;;;;;5070789;28;20293;-74
2022/06/04 09:10:38;;;;;;;16.83;8.23;;;23.30;99.90;;;;;;5056558;28;20206;-74
2022/06/04 09:13:11;;;;;;;28.83;9.32;;;23.30;99.90;;;;;;5071028;28;20210;-75
2022/06/04 09:15:43;;;;;;;8.90;6.32;;;23.10;99.90;;;;;;5067439;28;20872;-74
2022/06/04 09:18:16;;;;;;;13.07;8.27;;;23.00;99.90;;;;;;5063859;28;20263;-75
2022/06/04 09:20:46;;;;;;;14.88;8.15;;;23.00;99.90;;;;;;5070740;28;20205;-77
2022/06/04 09:23:22;;;;;;;11.60;6.22;;;23.00;99.90;;;;;;5070792;28;20252;-77
2022/06/04 09:25:55;;;;;;;15.75;7.65;;;22.90;99.90;;;;;;5070104;28;20206;-77
2022/06/04 09:28:30;;;;;;;13.88;7.50;;;22.90;99.90;;;;;;5062654;28;20662;-76
2022/06/04 09:31:08;;;;;;;10.43;7.63;;;22.80;99.90;;;;;;5067062;28;20253;-73
2022/06/04 09:33:54;;;;;;;9.60;8.07;;;22.80;99.90;;;;;;5067215;28;20206;-74
2022/06/04 09:36:26;;;;;;;10.75;7.10;;;23.00;99.90;;;;;;5065973;28;20730;-76
2022/06/04 09:38:56;;;;;;;14.60;7.13;;;23.20;99.90;;;;;;5070125;28;20641;-75
2022/06/04 09:41:27;;;;;;;14.98;9.15;;;23.40;99.90;;;;;;5068902;28;20741;-75
2022/06/04 09:44:07;;;;;;;8.82;6.85;;;23.40;99.90;;;;;;5069895;28;20249;-75
2022/06/04 09:46:35;;;;;;;9.55;8.18;;;23.40;99.90;;;;;;5059469;28;20201;-79
2022/06/04 09:49:13;;;;;;;46.45;41.90;;;23.40;99.90;;;;;;5070338;28;20255;-76
2022/06/04 09:51:44;;;;;;;23.48;19.63;;;23.60;99.90;;;;;;5070132;28;20233;-75
2022/06/04 09:54:25;;;;;;;11.75;8.45;;;23.60;99.90;;;;;;5070551;28;20296;-75
2022/06/04 09:56:55;;;;;;;12.75;6.72;;;23.50;99.90;;;;;;5067998;28;20209;-77
2022/06/04 09:59:25;;;;;;;16.65;9.82;;;23.50;99.90;;;;;;5067920;28;20331;-74
2022/06/04 10:01:57;;;;;;;12.68;7.43;;;23.50;99.90;;;;;;5070174;28;20615;-74
2022/06/04 10:04:37;;;;;;;10.63;8.18;;;23.40;99.90;;;;;;5068218;28;20202;-77
2022/06/04 10:07:09;;;;;;;10.00;7.00;;;23.30;99.90;;;;;;5068217;28;20202;-77
2022/06/04 10:09:57;;;;;;;13.38;8.27;;;23.60;99.90;;;;;;5069413;28;20210;-74
2022/06/04 10:15:30;;;;;;;10.45;7.97;;;23.60;99.90;;;;;;5070506;28;20700;-74
2022/06/04 10:18:07;;;;;;;13.57;7.10;;;24.00;99.90;;;;;;5070148;28;20585;-75
2022/06/04 10:20:35;;;;;;;13.38;8.73;;;24.50;99.90;;;;;;5069476;28;20257;-75
2022/06/04 10:23:07;;;;;;;9.75;7.63;;;25.20;99.90;;;;;;5069085;28;20206;-74
2022/06/04 10:25:42;;;;;;;12.20;7.45;;;24.80;99.90;;;;;;5067829;28;20202;-75
2022/06/04 10:28:25;;;;;;;13.30;7.45;;;25.00;99.90;;;;;;5069422;28;20206;-73
2022/06/04 10:30:59;;;;;;;14.40;7.63;;;25.30;99.90;;;;;;5070000;28;20217;-74
2022/06/04 10:33:36;;;;;;;7.40;6.75;;;25.90;99.90;;;;;;5068952;28;20209;-75
2022/06/04 10:36:21;;;;;;;11.68;8.00;;;25.80;99.90;;;;;;5069614;28;20210;-75
2022/06/04 10:39:00;;;;;;;11.63;7.15;;;25.70;99.90;;;;;;5068815;28;20212;-74
2022/06/04 10:41:36;;;;;;;14.77;9.00;;;25.40;99.90;;;;;;5068570;28;20202;-74
2022/06/04 10:44:29;;;;;;;10.25;7.40;;;25.30;99.90;;;;;;5063187;28;20209;-73
2022/06/04 10:47:07;;;;;;;15.93;8.60;;;24.60;99.90;;;;;;5068233;28;20202;-74
2022/06/04 10:49:50;;;;;;;12.00;7.57;;;24.20;99.90;;;;;;5066259;28;20214;-74
2022/06/04 10:52:26;;;;;;;33.92;9.75;;;24.20;99.90;;;;;;5069970;28;20233;-73
2022/06/04 10:55:00;;;;;;;10.30;8.02;;;24.20;99.90;;;;;;5066320;28;20210;-74
2022/06/04 10:57:32;;;;;;;20.17;10.43;;;24.00;99.90;;;;;;5069023;28;20210;-75
2022/06/04 11:00:04;;;;;;;18.45;9.82;;;24.10;99.90;;;;;;5071770;28;20206;-73
2022/06/04 11:02:40;;;;;;;13.50;7.85;;;24.10;99.90;;;;;;5072378;28;20685;-75
2022/06/04 11:05:15;;;;;;;10.93;8.02;;;24.20;99.90;;;;;;5060600;28;20280;-75
2022/06/04 11:07:53;;;;;;;13.95;8.48;;;24.30;99.90;;;;;;5066747;28;20255;-76
2022/06/04 11:10:23;;;;;;;16.67;7.85;;;24.40;99.90;;;;;;5072781;28;20669;-74
2022/06/04 11:12:56;;;;;;;11.02;7.50;;;24.60;99.90;;;;;;5072632;28;20234;-75
2022/06/04 11:15:30;;;;;;;10.30;7.80;;;25.40;99.90;;;;;;5070838;28;20198;-75
2022/06/04 11:18:02;;;;;;;17.30;8.70;;;25.50;99.90;;;;;;5072698;28;20206;-75
2022/06/04 11:20:32;;;;;;;14.98;8.68;;;25.60;99.90;;;;;;5071876;28;20670;-76
2022/06/04 11:23:16;;;;;;;12.93;7.85;;;25.20;99.90;;;;;;5072593;28;20210;-74
2022/06/04 11:25:47;;;;;;;13.45;8.10;;;24.80;99.90;;;;;;5072609;28;20209;-74
2022/06/04 11:28:24;;;;;;;13.43;6.50;;;24.50;99.90;;;;;;5072530;28;20202;-74
2022/06/04 11:30:58;;;;;;;10.25;7.32;;;24.30;99.90;;;;;;5072544;28;20198;-76
2022/06/04 11:33:37;;;;;;;11.80;8.13;;;24.60;99.90;;;;;;5071716;28;20234;-77
2022/06/04 11:36:14;;;;;;;14.52;8.80;;;24.80;99.90;;;;;;5058703;28;20621;-75
2022/06/04 11:39:02;;;;;;;13.88;8.70;;;25.00;99.90;;;;;;5072385;28;20267;-76
2022/06/04 11:41:37;;;;;;;11.07;7.78;;;25.20;99.90;;;;;;5071548;28;20206;-75
2022/06/04 11:44:20;;;;;;;21.83;8.50;;;25.30;99.90;;;;;;5072018;28;20210;-76
2022/06/04 11:47:01;;;;;;;15.88;7.55;;;25.00;99.90;;;;;;5072410;28;20205;-74
2022/06/04 11:49:34;;;;;;;16.73;8.38;;;24.90;99.90;;;;;;5072257;28;20259;-78
2022/06/04 11:52:18;;;;;;;13.40;7.85;;;25.20;99.90;;;;;;5071515;28;20777;-77
2022/06/04 11:54:58;;;;;;;11.68;8.32;;;24.90;99.90;;;;;;5072775;28;20210;-76
2022/06/04 11:57:32;;;;;;;12.98;8.10;;;24.80;99.90;;;;;;5072224;28;20206;-75
2022/06/04 12:00:12;;;;;;;13.70;8.50;;;24.80;99.90;;;;;;5066035;28;20201;-77
2022/06/04 12:02:49;;;;;;;11.07;8.73;;;24.50;99.90;;;;;;5071870;28;20211;-74
2022/06/04 12:05:28;;;;;;;13.23;8.48;;;24.50;99.90;;;;;;5072191;28;20719;-75
2022/06/04 12:07:56;;;;;;;10.70;7.72;;;24.70;99.90;;;;;;5070901;28;20238;-75
2022/06/04 12:10:47;;;;;;;23.00;8.52;;;25.10;99.90;;;;;;5069329;28;20260;-74
2022/06/04 12:13:23;;;;;;;15.20;8.45;;;25.60;99.90;;;;;;5070648;28;20299;-76
2022/06/04 12:15:55;;;;;;;13.98;8.85;;;26.00;99.90;;;;;;5070838;28;20233;-76
2022/06/04 12:18:28;;;;;;;14.07;9.02;;;26.20;99.90;;;;;;5069038;28;20272;-77
2022/06/04 12:26:32;;;;;;;13.23;8.45;;;26.80;99.90;;;;;;5069738;28;20243;-75
2022/06/04 12:28:59;;;;;;;13.10;8.32;;;26.20;99.90;;;;;;5069736;28;20590;-74
2022/06/04 12:31:30;;;;;;;12.75;8.65;;;26.30;99.90;;;;;;5070640;28;20202;-74
2022/06/04 12:33:58;;;;;;;14.20;8.65;;;26.30;99.90;;;;;;5069421;28;20210;-75
2022/06/04 12:36:27;;;;;;;13.93;8.63;;;26.60;99.90;;;;;;5071216;28;20260;-74
2022/06/04 12:39:05;;;;;;;12.63;7.55;;;26.90;99.90;;;;;;5071053;28;20659;-73
2022/06/04 12:41:54;;;;;;;11.77;8.15;;;26.70;99.90;;;;;;5062781;28;20210;-75
2022/06/04 12:44:26;;;;;;;16.75;7.70;;;26.60;99.90;;;;;;5065274;28;20206;-74
2022/06/04 12:46:55;;;;;;;12.32;7.78;;;26.60;99.90;;;;;;5065375;28;20256;-73
2022/06/04 12:49:30;;;;;;;12.48;7.97;;;26.80;99.90;;;;;;5066975;28;20206;-74
2022/06/04 12:52:02;;;;;;;14.10;8.18;;;26.80;99.90;;;;;;5071037;28;20352;-74
2022/06/04 12:54:44;;;;;;;16.40;8.48;;;27.00;99.90;;;;;;5070720;28;20252;-76
2022/06/04 12:57:38;;;;;;;13.43;7.22;;;27.10;99.90;;;;;;5070425;28;20296;-75
2022/06/04 13:00:22;;;;;;;10.90;7.65;;;27.00;99.90;;;;;;5071205;28;20216;-75
2022/06/04 13:03:26;;;;;;;13.85;8.27;;;27.30;99.90;;;;;;5071073;28;20213;-76
2022/06/04 13:06:03;;;;;;;16.65;8.93;;;27.70;99.90;;;;;;5070924;28;20209;-75
2022/06/04 13:08:39;;;;;;;14.82;9.32;;;27.90;99.90;;;;;;5063720;28;20263;-75
2022/06/04 13:11:19;;;;;;;10.05;6.32;;;27.90;99.90;;;;;;5070941;28;20213;-75
2022/06/04 13:13:56;;;;;;;12.18;8.02;;;28.10;99.90;;;;;;5071161;28;20283;-72
2022/06/04 13:16:27;;;;;;;9.82;6.70;;;27.90;99.90;;;;;;5070569;28;20210;-73
2022/06/04 13:19:12;;;;;;;14.32;8.00;;;27.50;99.90;;;;;;5070557;28;20209;-73
2022/06/04 13:21:42;;;;;;;11.88;7.15;;;27.70;99.90;;;;;;5069691;28;20214;-73
2022/06/04 13:24:16;;;;;;;14.57;7.70;;;28.20;99.90;;;;;;5057129;28;20287;-75
2022/06/04 13:26:50;;;;;;;10.23;8.32;;;28.30;99.90;;;;;;5071147;28;20229;-76